createdAt,value
2023-10-29T00:05:15.597Z,1.01
2023-10-29T00:10:21.049Z,0.96
2023-10-29T00:15:25.521Z,1.39
2023-10-29T00:20:29.509Z,1.15
2023-10-29T00:25:33.740Z,1.03
2023-10-29T00:30:37.053Z,1.62
2023-10-29T00:35:40.630Z,1.31
2023-10-29T00:40:44.417Z,1.28
2023-10-29T00:45:52.724Z,1.29
2023-10-29T00:50:57.861Z,1.51
2023-10-29T00:56:03.272Z,1.04
2023-10-29T01:05:18.282Z,1.23
2023-10-29T01:10:22.195Z,1.43
2023-10-29T01:15:27.247Z,1.44
2023-10-29T01:20:31.604Z,1.50
2023-10-29T01:25:35.331Z,1.35
2023-10-29T01:30:38.938Z,1.20
2023-10-29T01:35:43.069Z,1.15
2023-10-29T01:40:49.807Z,1.20
2023-10-29T01:45:53.417Z,1.35
2023-10-29T01:50:58.798Z,1.37
2023-10-29T01:56:05.842Z,1.34
2023-10-29T02:01:15.288Z,1.42
2023-10-29T02:06:20.810Z,1.43
2023-10-29T02:11:25.265Z,1.46
2023-10-29T02:16:28.806Z,1.53
2023-10-29T02:21:33.454Z,1.20
2023-10-29T02:26:37.572Z,1.33
2023-10-29T02:31:41.622Z,1.65
2023-10-29T02:36:45.643Z,1.80
2023-10-29T02:41:49.091Z,1.37
2023-10-29T02:46:52.997Z,1.47
2023-10-29T02:51:57.594Z,1.58
2023-10-29T02:57:03.389Z,1.91
2023-10-29T03:02:07.117Z,1.64
2023-10-29T03:07:13.240Z,1.53
2023-10-29T03:12:19.068Z,1.66
2023-10-29T03:17:24.129Z,1.81
2023-10-29T03:22:27.755Z,1.75
2023-10-29T03:27:31.795Z,1.75
2023-10-29T03:32:35.359Z,1.60
2023-10-29T03:37:38.906Z,1.59
2023-10-29T03:42:42.286Z,1.46
2023-10-29T03:47:45.680Z,1.36
2023-10-29T03:52:49.158Z,1.44
2023-10-29T03:57:54.182Z,1.56
2023-10-29T04:05:14.218Z,1.31
2023-10-29T04:10:18.585Z,1.43
2023-10-29T04:15:22.770Z,1.99
2023-10-29T04:20:28.284Z,1.07
2023-10-29T04:25:32.197Z,1.44
2023-10-29T04:30:35.800Z,1.19
2023-10-29T04:35:39.652Z,1.24
2023-10-29T04:40:43.045Z,1.45
2023-10-29T04:45:46.766Z,1.54
2023-10-29T04:50:50.296Z,1.21
2023-10-29T04:55:54.896Z,1.34
2023-10-29T05:00:58.456Z,1.48
2023-10-29T05:06:03.519Z,1.62
2023-10-29T05:11:06.880Z,2.08
2023-10-29T05:16:11.875Z,2.40
2023-10-29T05:21:15.396Z,3.29
2023-10-29T05:26:19.543Z,2.59
2023-10-29T05:31:24.010Z,2.66
2023-10-29T05:36:27.676Z,2.88
2023-10-29T05:41:31.006Z,2.84
2023-10-29T05:46:34.391Z,2.09
2023-10-29T05:51:37.609Z,2.21
2023-10-29T05:56:41.863Z,2.13
2023-10-29T06:05:30.305Z,1.86
2023-10-29T06:10:34.601Z,1.99
2023-10-29T06:15:38.962Z,1.32
2023-10-29T06:20:42.640Z,1.54
2023-10-29T06:25:46.067Z,2.23
2023-10-29T06:30:49.503Z,4.89
2023-10-29T06:35:53.016Z,10.88
2023-10-29T06:40:56.567Z,15.08
2023-10-29T06:46:00.227Z,3.47
2023-10-29T06:51:04.839Z,3.31
2023-10-29T06:56:08.295Z,1.87
2023-10-29T07:01:12.140Z,1.96
2023-10-29T07:06:17.173Z,3.45
2023-10-29T07:11:20.513Z,1.97
2023-10-29T07:16:24.067Z,1.53
2023-10-29T07:21:30.023Z,1.73
2023-10-29T07:26:33.800Z,1.48
2023-10-29T07:31:38.131Z,24.04
2023-10-29T07:36:41.563Z,12.46
2023-10-29T07:41:44.901Z,4.41
2023-10-29T07:46:48.980Z,2.88
2023-10-29T07:51:52.401Z,1.54
2023-10-29T07:56:55.978Z,1.83
2023-10-29T08:02:00.409Z,1.30
2023-10-29T08:07:04.744Z,2.16
2023-10-29T08:12:08.460Z,2.25
2023-10-29T08:17:13.842Z,1.83
2023-10-29T08:22:18.105Z,2.14
2023-10-29T08:27:21.444Z,2.24
2023-10-29T08:32:24.778Z,15.72
2023-10-29T08:37:28.233Z,3.62
2023-10-29T08:42:32.564Z,3.71
2023-10-29T08:47:36.031Z,3.39
2023-10-29T08:52:39.695Z,3.21
2023-10-29T08:57:44.364Z,3.05
2023-10-29T09:02:48.200Z,3.07
2023-10-29T09:07:51.777Z,3.17
2023-10-29T09:12:56.209Z,5.37
2023-10-29T09:17:59.669Z,3.53
2023-10-29T09:23:03.176Z,3.56
2023-10-29T09:28:07.312Z,4.46
2023-10-29T09:33:12.820Z,3.35
2023-10-29T09:38:18.432Z,2.99
2023-10-29T09:43:25.430Z,4.04
2023-10-29T09:48:28.926Z,4.22
2023-10-29T09:53:35.204Z,2.45
2023-10-29T09:58:39.384Z,1.94
2023-10-29T10:05:31.039Z,1.82
2023-10-29T10:10:38.148Z,1.72
2023-10-29T10:15:42.025Z,2.23
2023-10-29T10:20:45.789Z,1.62
2023-10-29T10:25:52.021Z,2.04
2023-10-29T10:30:55.575Z,1.62
2023-10-29T10:36:00.437Z,1.87
2023-10-29T10:41:03.879Z,1.42
2023-10-29T10:46:10.286Z,1.76
2023-10-29T10:51:14.440Z,2.01
2023-10-29T10:56:18.953Z,2.05
2023-10-29T11:01:25.237Z,1.96
2023-10-29T11:06:29.098Z,2.02
2023-10-29T11:11:39.657Z,2.44
2023-10-29T11:16:59.129Z,2.55
2023-10-29T11:22:18.432Z,2.33
2023-10-29T11:27:45.017Z,29.55
2023-10-29T11:33:14.808Z,3.05
2023-10-29T11:38:34.686Z,2.29
2023-10-29T11:43:38.038Z,2.92
2023-10-29T11:48:44.983Z,4.08
2023-10-29T11:53:50.551Z,4.01
2023-10-29T11:59:05.520Z,3.69
2023-10-29T12:04:10.354Z,4.33
2023-10-29T12:09:19.131Z,3.98
2023-10-29T12:19:56.880Z,3.19
2023-10-29T12:25:02.150Z,3.26
2023-10-29T12:30:07.760Z,2.56
2023-10-29T12:35:11.169Z,2.64
2023-10-29T12:40:16.294Z,2.47
2023-10-29T12:45:30.156Z,2.98
2023-10-29T12:50:49.229Z,2.71
2023-10-29T12:55:54.119Z,5.33
2023-10-29T13:05:17.562Z,3.41
2023-10-29T13:10:22.101Z,3.08
2023-10-29T13:15:25.738Z,4.71
2023-10-29T13:20:32.211Z,10.04
2023-10-29T13:25:35.612Z,5.01
2023-10-29T13:30:38.968Z,6.09
2023-10-29T13:35:43.710Z,6.89
2023-10-29T13:40:47.318Z,5.53
2023-10-29T13:46:05.973Z,6.57
2023-10-29T13:51:09.853Z,6.03
2023-10-29T13:56:14.546Z,3.64
2023-10-29T14:01:20.004Z,3.19
2023-10-29T14:06:23.733Z,3.32
2023-10-29T14:11:27.551Z,5.94
2023-10-29T14:16:41.668Z,14.00
2023-10-29T14:21:47.047Z,11.51
2023-10-29T14:26:52.446Z,8.00
2023-10-29T14:31:55.875Z,8.52
2023-10-29T14:36:59.660Z,8.91
2023-10-29T14:42:04.707Z,9.38
2023-10-29T14:47:08.780Z,8.41
2023-10-29T14:52:12.186Z,6.91
2023-10-29T14:57:28.392Z,7.49
2023-10-29T15:02:21.465Z,6.76
2023-10-29T15:07:26.322Z,8.11
2023-10-29T15:12:30.045Z,6.64
2023-10-29T15:17:34.728Z,5.67
2023-10-29T15:22:38.097Z,5.51
2023-10-29T15:27:42.126Z,5.66
2023-10-29T15:32:47.034Z,8.04
2023-10-29T15:37:51.005Z,9.85
2023-10-29T15:42:54.625Z,10.04
2023-10-29T15:47:58.878Z,13.93
2023-10-29T15:53:02.561Z,14.65
2023-10-29T15:58:06.150Z,12.36
2023-10-29T16:05:58.398Z,12.57
2023-10-29T16:11:01.937Z,13.43
2023-10-29T16:16:08.304Z,16.51
2023-10-29T16:21:12.810Z,15.59
2023-10-29T16:26:17.229Z,13.54
2023-10-29T16:31:21.158Z,13.18
2023-10-29T16:36:26.285Z,14.03
2023-10-29T16:41:30.627Z,19.83
2023-10-29T16:46:35.631Z,25.34
2023-10-29T16:51:39.255Z,26.30
2023-10-29T16:56:42.757Z,30.34
2023-10-29T17:01:47.025Z,22.09
2023-10-29T17:06:50.816Z,20.62
2023-10-29T17:11:55.427Z,12.44
2023-10-29T17:17:00.514Z,53.42
2023-10-29T17:22:04.358Z,31.51
2023-10-29T17:27:08.102Z,26.22
2023-10-29T17:32:13.578Z,23.07
2023-10-29T17:37:19.022Z,23.88
2023-10-29T17:42:24.022Z,18.68
2023-10-29T17:47:28.033Z,19.88
2023-10-29T17:52:34.616Z,20.66
2023-10-29T17:57:39.848Z,18.62
2023-10-29T18:02:43.715Z,20.02
2023-10-29T18:07:47.478Z,22.79
2023-10-29T18:12:52.078Z,21.84
2023-10-29T18:17:55.614Z,39.42
2023-10-29T18:22:59.260Z,42.97
2023-10-29T18:28:04.808Z,45.42
2023-10-29T18:33:09.598Z,36.43
2023-10-29T18:38:20.750Z,56.11
2023-10-29T18:43:25.832Z,86.75
2023-10-29T18:48:30.188Z,106.65
2023-10-29T18:53:34.281Z,103.62
2023-10-29T18:58:41.846Z,76.25
2023-10-29T19:05:19.305Z,53.30
2023-10-29T19:10:23.340Z,32.39
2023-10-29T19:15:34.271Z,28.89
2023-10-29T19:20:41.904Z,24.77
2023-10-29T19:25:46.020Z,23.37
2023-10-29T19:31:05.106Z,22.68
2023-10-29T19:35:56.502Z,18.39
2023-10-29T19:41:01.397Z,17.58
2023-10-29T19:46:05.361Z,18.09
2023-10-29T19:51:09.239Z,18.27
2023-10-29T19:56:12.926Z,16.95
2023-10-29T20:01:18.464Z,15.84
2023-10-29T20:06:21.864Z,15.56
2023-10-29T20:11:25.343Z,16.51
2023-10-29T20:16:28.835Z,15.32
2023-10-29T20:21:33.283Z,16.87
2023-10-29T20:26:38.068Z,45.09
2023-10-29T20:31:41.482Z,31.45
2023-10-29T20:36:44.774Z,27.39
2023-10-29T20:41:48.351Z,20.64
2023-10-29T20:46:51.791Z,17.39
2023-10-29T20:51:56.628Z,14.98
2023-10-29T20:57:00.008Z,14.81
2023-10-29T21:02:03.765Z,13.08
2023-10-29T21:07:06.981Z,10.49
2023-10-29T21:12:11.259Z,11.96
2023-10-29T21:17:14.648Z,10.89
2023-10-29T21:22:18.124Z,10.68
2023-10-29T21:27:21.544Z,9.71
2023-10-29T21:32:24.968Z,9.23
2023-10-29T21:37:28.991Z,8.13
2023-10-29T21:42:32.811Z,9.17
2023-10-29T21:47:38.768Z,22.12
2023-10-29T21:52:42.835Z,25.17
2023-10-29T21:57:46.132Z,11.84
2023-10-29T22:06:05.161Z,11.17
2023-10-29T22:11:10.090Z,9.08
2023-10-29T22:16:18.720Z,8.54
2023-10-29T22:21:22.766Z,7.88
2023-10-29T22:26:26.272Z,7.64
2023-10-29T22:31:29.718Z,7.76
2023-10-29T22:36:33.629Z,7.38
2023-10-29T22:41:37.441Z,9.19
2023-10-29T22:46:41.392Z,8.11
2023-10-29T22:51:46.515Z,8.27
2023-10-29T22:56:50.039Z,8.96
2023-10-29T23:01:53.653Z,9.97
2023-10-29T23:06:57.064Z,10.63
2023-10-29T23:12:00.838Z,8.08
2023-10-29T23:17:04.241Z,8.48
2023-10-29T23:22:08.337Z,7.82
2023-10-29T23:27:12.099Z,7.27
2023-10-29T23:32:15.694Z,7.54
2023-10-29T23:37:19.194Z,8.44
2023-10-29T23:42:23.051Z,8.13
2023-10-29T23:47:26.466Z,8.83
2023-10-29T23:52:30.448Z,7.02
2023-10-29T23:57:35.225Z,7.31
